sensor_id;sensor_type;location;lat;lon;timestamp;temperature;humidity
9776;DHT22;4927;52.472;13.108;2023-03-01T00:00:22;-4.40;99.90
9776;DHT22;4927;52.472;13.108;2023-03-01T00:01:40;-4.50;99.90
9776;DHT22;4927;52.472;13.108;2023-03-01T00:02:59;-4.50;99.90
9776;DHT22;4927;52.472;13.108;2023-03-01T00:04:17;-4.50;99.90
9776;DHT22;4927;52.472;13.108;2023-03-01T00:05:35;-4.50;99.90
9776;DHT22;4927;52.472;13.108;2023-03-01T00:06:53;-4.50;99.90
9776;DHT22;4927;52.472;13.108;2023-03-01T00:08:10;-4.50;99.90
9776;DHT22;4927;52.472;13.108;2023-03-01T00:09:28;-4.50;99.90
9776;DHT22;4927;52.472;13.108;2023-03-01T00:10:47;-4.50;99.90
9776;DHT22;4927;52.472;13.108;2023-03-01T00:12:05;-4.50;99.90
9776;DHT22;4927;52.472;13.108;2023-03-01T00:13:23;-4.60;99.90
9776;DHT22;4927;52.472;13.108;2023-03-01T00:14:41;-4.60;99.90
9776;DHT22;4927;52.472;13.108;2023-03-01T00:16:01;-4.60;99.90
9776;DHT22;4927;52.472;13.108;2023-03-01T00:17:17;-4.60;99.90
9776;DHT22;4927;52.472;13.108;2023-03-01T00:18:34;-4.70;99.90
9776;DHT22;4927;52.472;13.108;2023-03-01T00:19:52;-4.60;99.90
9776;DHT22;4927;52.472;13.108;2023-03-01T00:21:11;-4.70;99.90
9776;DHT22;4927;52.472;13.108;2023-03-01T00:22:28;-4.70;99.90
9776;DHT22;4927;52.472;13.108;2023-03-01T00:23:45;-4.70;99.90
9776;DHT22;4927;52.472;13.108;2023-03-01T00:25:04;-4.70;99.90
9776;DHT22;4927;52.472;13.108;2023-03-01T00:26:23;-4.70;99.90
9776;DHT22;4927;52.472;13.108;2023-03-01T00:27:41;-4.70;99.90
9776;DHT22;4927;52.472;13.108;2023-03-01T00:28:59;-4.70;99.90
9776;DHT22;4927;52.472;13.108;2023-03-01T00:30:17;-4.70;99.90
9776;DHT22;4927;52.472;13.108;2023-03-01T00:31:35;-4.70;99.90
9776;DHT22;4927;52.472;13.108;2023-03-01T00:32:53;-4.80;99.90
9776;DHT22;4927;52.472;13.108;2023-03-01T00:34:11;-4.80;99.90
9776;DHT22;4927;52.472;13.108;2023-03-01T00:35:29;-4.70;99.90
9776;DHT22;4927;52.472;13.108;2023-03-01T00:36:47;-4.80;99.90
9776;DHT22;4927;52.472;13.108;2023-03-01T00:38:05;-4.80;99.90
9776;DHT22;4927;52.472;13.108;2023-03-01T00:39:23;-4.80;99.90
9776;DHT22;4927;52.472;13.108;2023-03-01T00:40:41;-4.80;99.90
9776;DHT22;4927;52.472;13.108;2023-03-01T00:41:59;-4.80;99.90
9776;DHT22;4927;52.472;13.108;2023-03-01T00:43:17;-4.80;99.90
9776;DHT22;4927;52.472;13.108;2023-03-01T00:44:35;-4.80;99.90
9776;DHT22;4927;52.472;13.108;2023-03-01T00:45:53;-4.80;99.90
9776;DHT22;4927;52.472;13.108;2023-03-01T00:47:11;-4.80;99.90
9776;DHT22;4927;52.472;13.108;2023-03-01T00:48:28;-4.80;99.90
9776;DHT22;4927;52.472;13.108;2023-03-01T00:49:46;-4.80;99.90
9776;DHT22;4927;52.472;13.108;2023-03-01T00:51:22;-4.80;99.90
9776;DHT22;4927;52.472;13.108;2023-03-01T00:52:37;-4.80;99.90
9776;DHT22;4927;52.472;13.108;2023-03-01T00:53:56;-4.90;99.90
9776;DHT22;4927;52.472;13.108;2023-03-01T00:55:12;-4.90;99.90
9776;DHT22;4927;52.472;13.108;2023-03-01T00:56:28;-4.90;99.90
9776;DHT22;4927;52.472;13.108;2023-03-01T00:57:47;-5.00;99.90
9776;DHT22;4927;52.472;13.108;2023-03-01T00:59:05;-5.00;99.90
9776;DHT22;4927;52.472;13.108;2023-03-01T01:00:23;-5.00;99.90
9776;DHT22;4927;52.472;13.108;2023-03-01T01:01:41;-5.10;99.90
9776;DHT22;4927;52.472;13.108;2023-03-01T01:02:57;-5.10;99.90
9776;DHT22;4927;52.472;13.108;2023-03-01T01:04:15;-5.10;99.90
9776;DHT22;4927;52.472;13.108;2023-03-01T01:05:34;-5.10;99.90
9776;DHT22;4927;52.472;13.108;2023-03-01T01:06:51;-5.10;99.90
9776;DHT22;4927;52.472;13.108;2023-03-01T01:08:08;-5.10;99.90
9776;DHT22;4927;52.472;13.108;2023-03-01T01:09:26;-5.10;99.90
9776;DHT22;4927;52.472;13.108;2023-03-01T01:10:45;-5.10;99.90
9776;DHT22;4927;52.472;13.108;2023-03-01T01:12:03;-5.10;99.90
9776;DHT22;4927;52.472;13.108;2023-03-01T01:13:21;-5.10;99.90
9776;DHT22;4927;52.472;13.108;2023-03-01T01:14:39;-5.10;99.90
9776;DHT22;4927;52.472;13.108;2023-03-01T01:16:00;-5.10;99.90
9776;DHT22;4927;52.472;13.108;2023-03-01T01:17:14;-5.10;99.90
9776;DHT22;4927;52.472;13.108;2023-03-01T01:18:32;-5.10;99.90
9776;DHT22;4927;52.472;13.108;2023-03-01T01:19:50;-5.10;99.90
9776;DHT22;4927;52.472;13.108;2023-03-01T01:21:08;-5.20;99.90
9776;DHT22;4927;52.472;13.108;2023-03-01T01:22:24;-5.20;99.90
9776;DHT22;4927;52.472;13.108;2023-03-01T01:23:40;-5.20;99.90
9776;DHT22;4927;52.472;13.108;2023-03-01T01:24:57;-5.30;99.90
9776;DHT22;4927;52.472;13.108;2023-03-01T01:26:24;-5.30;99.90
9776;DHT22;4927;52.472;13.108;2023-03-01T01:27:42;-5.20;99.90
9776;DHT22;4927;52.472;13.108;2023-03-01T01:28:58;-5.30;99.90
9776;DHT22;4927;52.472;13.108;2023-03-01T01:30:20;-5.30;99.90
9776;DHT22;4927;52.472;13.108;2023-03-01T01:31:39;-5.30;99.90
9776;DHT22;4927;52.472;13.108;2023-03-01T01:32:57;-5.30;99.90
9776;DHT22;4927;52.472;13.108;2023-03-01T01:34:15;-5.30;99.90
9776;DHT22;4927;52.472;13.108;2023-03-01T01:35:32;-5.40;99.90
9776;DHT22;4927;52.472;13.108;2023-03-01T01:36:51;-5.40;99.90
9776;DHT22;4927;52.472;13.108;2023-03-01T01:38:08;-5.40;99.90
9776;DHT22;4927;52.472;13.108;2023-03-01T01:39:26;-5.30;99.90
9776;DHT22;4927;52.472;13.108;2023-03-01T01:40:45;-5.30;99.90
9776;DHT22;4927;52.472;13.108;2023-03-01T01:42:03;-5.30;99.90
9776;DHT22;4927;52.472;13.108;2023-03-01T01:43:27;-5.50;99.90
9776;DHT22;4927;52.472;13.108;2023-03-01T01:44:46;-5.30;99.90
9776;DHT22;4927;52.472;13.108;2023-03-01T01:46:04;-5.30;99.90
9776;DHT22;4927;52.472;13.108;2023-03-01T01:47:22;-5.30;99.90
9776;DHT22;4927;52.472;13.108;2023-03-01T01:48:43;-5.30;99.90
9776;DHT22;4927;52.472;13.108;2023-03-01T01:49:59;-5.30;99.90
9776;DHT22;4927;52.472;13.108;2023-03-01T01:51:19;-5.30;99.90
9776;DHT22;4927;52.472;13.108;2023-03-01T01:52:40;-5.30;99.90
9776;DHT22;4927;52.472;13.108;2023-03-01T01:53:59;-5.30;99.90
9776;DHT22;4927;52.472;13.108;2023-03-01T01:55:17;-5.30;99.90
9776;DHT22;4927;52.472;13.108;2023-03-01T01:56:35;-5.30;99.90
9776;DHT22;4927;52.472;13.108;2023-03-01T01:57:54;-5.30;99.90
9776;DHT22;4927;52.472;13.108;2023-03-01T01:59:12;-5.30;99.90
9776;DHT22;4927;52.472;13.108;2023-03-01T02:00:34;-5.30;99.90
9776;DHT22;4927;52.472;13.108;2023-03-01T02:01:50;-5.30;99.90
9776;DHT22;4927;52.472;13.108;2023-03-01T02:03:10;-5.30;99.90
9776;DHT22;4927;52.472;13.108;2023-03-01T02:04:27;-5.30;99.90
9776;DHT22;4927;52.472;13.108;2023-03-01T02:05:52;-5.30;99.90
9776;DHT22;4927;52.472;13.108;2023-03-01T02:07:15;-5.30;99.90
9776;DHT22;4927;52.472;13.108;2023-03-01T02:08:36;-5.30;99.90
9776;DHT22;4927;52.472;13.108;2023-03-01T02:09:54;-5.30;99.90
9776;DHT22;4927;52.472;13.108;2023-03-01T02:11:12;-5.30;99.90
9776;DHT22;4927;52.472;13.108;2023-03-01T02:12:30;-5.30;99.90
9776;DHT22;4927;52.472;13.108;2023-03-01T02:13:48;-5.30;99.90
9776;DHT22;4927;52.472;13.108;2023-03-01T02:15:06;-5.30;99.90
9776;DHT22;4927;52.472;13.108;2023-03-01T02:16:25;-5.30;99.90
9776;DHT22;4927;52.472;13.108;2023-03-01T02:17:43;-5.30;99.90
9776;DHT22;4927;52.472;13.108;2023-03-01T02:19:01;-5.30;99.90
9776;DHT22;4927;52.472;13.108;2023-03-01T02:20:24;-5.30;99.90
9776;DHT22;4927;52.472;13.108;2023-03-01T02:21:48;-5.40;99.90
9776;DHT22;4927;52.472;13.108;2023-03-01T02:23:04;-5.40;99.90
9776;DHT22;4927;52.472;13.108;2023-03-01T02:24:43;-5.40;99.90
9776;DHT22;4927;52.472;13.108;2023-03-01T02:26:01;-5.50;99.90
9776;DHT22;4927;52.472;13.108;2023-03-01T02:27:20;-5.50;99.90
9776;DHT22;4927;52.472;13.108;2023-03-01T02:28:38;-5.60;99.90
9776;DHT22;4927;52.472;13.108;2023-03-01T02:29:56;-5.60;99.90
9776;DHT22;4927;52.472;13.108;2023-03-01T02:31:14;-5.60;99.90
9776;DHT22;4927;52.472;13.108;2023-03-01T02:32:36;-5.70;99.90
9776;DHT22;4927;52.472;13.108;2023-03-01T02:33:54;-5.70;99.90
9776;DHT22;4927;52.472;13.108;2023-03-01T02:35:12;-5.70;99.90
9776;DHT22;4927;52.472;13.108;2023-03-01T02:36:31;-5.70;99.90
9776;DHT22;4927;52.472;13.108;2023-03-01T02:37:49;-5.70;99.90
9776;DHT22;4927;52.472;13.108;2023-03-01T02:39:07;-5.70;99.90
9776;DHT22;4927;52.472;13.108;2023-03-01T02:40:24;-5.70;99.90
9776;DHT22;4927;52.472;13.108;2023-03-01T02:41:43;-5.70;99.90
9776;DHT22;4927;52.472;13.108;2023-03-01T02:42:58;-5.70;99.90
9776;DHT22;4927;52.472;13.108;2023-03-01T02:44:16;-5.70;99.90
9776;DHT22;4927;52.472;13.108;2023-03-01T02:45:34;-5.70;99.90
9776;DHT22;4927;52.472;13.108;2023-03-01T02:46:56;-5.80;99.90
9776;DHT22;4927;52.472;13.108;2023-03-01T02:48:14;-5.80;99.90
9776;DHT22;4927;52.472;13.108;2023-03-01T02:49:36;-5.80;99.90
9776;DHT22;4927;52.472;13.108;2023-03-01T02:51:04;-5.80;99.90
9776;DHT22;4927;52.472;13.108;2023-03-01T02:54:25;-5.90;99.90
9776;DHT22;4927;52.472;13.108;2023-03-01T02:55:41;-5.90;99.90
9776;DHT22;4927;52.472;13.108;2023-03-01T02:56:59;-5.90;99.90
9776;DHT22;4927;52.472;13.108;2023-03-01T02:58:17;-5.90;99.90
9776;DHT22;4927;52.472;13.108;2023-03-01T02:59:35;-5.90;99.90
9776;DHT22;4927;52.472;13.108;2023-03-01T03:00:53;-5.90;99.90
9776;DHT22;4927;52.472;13.108;2023-03-01T03:02:21;-5.90;99.90
9776;DHT22;4927;52.472;13.108;2023-03-01T03:03:38;-5.80;99.90
9776;DHT22;4927;52.472;13.108;2023-03-01T03:04:54;-5.80;99.90
9776;DHT22;4927;52.472;13.108;2023-03-01T03:06:10;-5.80;99.90
9776;DHT22;4927;52.472;13.108;2023-03-01T03:07:32;-5.70;99.90
9776;DHT22;4927;52.472;13.108;2023-03-01T03:08:49;-5.80;99.90
9776;DHT22;4927;52.472;13.108;2023-03-01T03:10:12;-5.70;99.90
9776;DHT22;4927;52.472;13.108;2023-03-01T03:11:29;-5.70;99.90
9776;DHT22;4927;52.472;13.108;2023-03-01T03:12:51;-5.70;99.90
9776;DHT22;4927;52.472;13.108;2023-03-01T03:14:08;-5.70;99.90
9776;DHT22;4927;52.472;13.108;2023-03-01T03:15:26;-5.70;99.90
9776;DHT22;4927;52.472;13.108;2023-03-01T03:16:45;-5.70;99.90
9776;DHT22;4927;52.472;13.108;2023-03-01T03:18:03;-5.70;99.90
9776;DHT22;4927;52.472;13.108;2023-03-01T03:19:21;-5.70;99.90
9776;DHT22;4927;52.472;13.108;2023-03-01T03:20:40;-5.70;99.90
9776;DHT22;4927;52.472;13.108;2023-03-01T03:21:57;-5.70;99.90
9776;DHT22;4927;52.472;13.108;2023-03-01T03:23:15;-5.70;99.90
9776;DHT22;4927;52.472;13.108;2023-03-01T03:24:33;-5.70;99.90
9776;DHT22;4927;52.472;13.108;2023-03-01T03:25:51;-5.70;99.90
9776;DHT22;4927;52.472;13.108;2023-03-01T03:27:09;-5.70;99.90
9776;DHT22;4927;52.472;13.108;2023-03-01T03:28:27;-5.70;99.90
9776;DHT22;4927;52.472;13.108;2023-03-01T03:29:45;-5.70;99.90
9776;DHT22;4927;52.472;13.108;2023-03-01T03:31:05;-5.80;99.90
9776;DHT22;4927;52.472;13.108;2023-03-01T03:32:21;-5.70;99.90
9776;DHT22;4927;52.472;13.108;2023-03-01T03:33:43;-5.80;99.90
9776;DHT22;4927;52.472;13.108;2023-03-01T03:35:01;-5.80;99.90
9776;DHT22;4927;52.472;13.108;2023-03-01T03:36:20;-5.80;99.90
9776;DHT22;4927;52.472;13.108;2023-03-01T03:37:37;-5.90;99.90
9776;DHT22;4927;52.472;13.108;2023-03-01T03:39:01;-5.90;99.90
9776;DHT22;4927;52.472;13.108;2023-03-01T03:40:17;-5.90;99.90
9776;DHT22;4927;52.472;13.108;2023-03-01T03:41:35;-5.90;99.90
9776;DHT22;4927;52.472;13.108;2023-03-01T03:42:53;-5.90;99.90
9776;DHT22;4927;52.472;13.108;2023-03-01T03:44:11;-5.90;99.90
9776;DHT22;4927;52.472;13.108;2023-03-01T03:45:28;-5.90;99.90
9776;DHT22;4927;52.472;13.108;2023-03-01T03:46:46;-5.90;99.90
9776;DHT22;4927;52.472;13.108;2023-03-01T03:48:05;-5.90;99.90
9776;DHT22;4927;52.472;13.108;2023-03-01T03:49:22;-5.90;99.90
9776;DHT22;4927;52.472;13.108;2023-03-01T03:50:40;-5.90;99.90
9776;DHT22;4927;52.472;13.108;2023-03-01T03:51:58;-5.90;99.90
9776;DHT22;4927;52.472;13.108;2023-03-01T03:53:16;-5.90;99.90
9776;DHT22;4927;52.472;13.108;2023-03-01T03:54:35;-5.90;99.90
9776;DHT22;4927;52.472;13.108;2023-03-01T03:55:53;-5.90;99.90
9776;DHT22;4927;52.472;13.108;2023-03-01T03:57:10;-5.90;99.90
9776;DHT22;4927;52.472;13.108;2023-03-01T03:58:29;-5.90;99.90
9776;DHT22;4927;52.472;13.108;2023-03-01T03:59:45;-5.90;99.90
9776;DHT22;4927;52.472;13.108;2023-03-01T04:01:03;-5.90;99.90
9776;DHT22;4927;52.472;13.108;2023-03-01T04:02:21;-5.90;99.90
9776;DHT22;4927;52.472;13.108;2023-03-01T04:03:39;-5.90;99.90
9776;DHT22;4927;52.472;13.108;2023-03-01T04:04:57;-5.90;99.90
9776;DHT22;4927;52.472;13.108;2023-03-01T04:06:14;-5.90;99.90
9776;DHT22;4927;52.472;13.108;2023-03-01T04:07:32;-5.90;99.90
9776;DHT22;4927;52.472;13.108;2023-03-01T04:08:50;-6.00;99.90
9776;DHT22;4927;52.472;13.108;2023-03-01T04:10:09;-6.00;99.90
9776;DHT22;4927;52.472;13.108;2023-03-01T04:11:26;-6.00;99.90
9776;DHT22;4927;52.472;13.108;2023-03-01T04:12:44;-6.00;99.90
9776;DHT22;4927;52.472;13.108;2023-03-01T04:14:03;-6.00;99.90
9776;DHT22;4927;52.472;13.108;2023-03-01T04:15:25;-6.00;99.90
9776;DHT22;4927;52.472;13.108;2023-03-01T04:16:41;-6.00;99.90
9776;DHT22;4927;52.472;13.108;2023-03-01T04:17:59;-6.00;99.90
9776;DHT22;4927;52.472;13.108;2023-03-01T04:19:16;-6.00;99.90
9776;DHT22;4927;52.472;13.108;2023-03-01T04:20:35;-6.00;99.90
9776;DHT22;4927;52.472;13.108;2023-03-01T04:21:53;-6.00;99.90
9776;DHT22;4927;52.472;13.108;2023-03-01T04:23:13;-6.00;99.90
9776;DHT22;4927;52.472;13.108;2023-03-01T04:24:31;-6.00;99.90
9776;DHT22;4927;52.472;13.108;2023-03-01T04:25:50;-6.10;99.90
9776;DHT22;4927;52.472;13.108;2023-03-01T04:27:11;-6.10;99.90
9776;DHT22;4927;52.472;13.108;2023-03-01T04:28:32;-6.10;99.90
9776;DHT22;4927;52.472;13.108;2023-03-01T04:29:49;-6.10;99.90
9776;DHT22;4927;52.472;13.108;2023-03-01T04:31:09;-6.20;99.90
9776;DHT22;4927;52.472;13.108;2023-03-01T04:32:31;-6.20;99.90
9776;DHT22;4927;52.472;13.108;2023-03-01T04:33:52;-6.10;99.90
9776;DHT22;4927;52.472;13.108;2023-03-01T04:35:09;-6.20;99.90
9776;DHT22;4927;52.472;13.108;2023-03-01T04:36:27;-6.10;99.90
9776;DHT22;4927;52.472;13.108;2023-03-01T04:37:45;-6.20;99.90
9776;DHT22;4927;52.472;13.108;2023-03-01T04:39:03;-6.20;99.90
9776;DHT22;4927;52.472;13.108;2023-03-01T04:40:18;-6.20;99.90
9776;DHT22;4927;52.472;13.108;2023-03-01T04:41:36;-6.10;99.90
9776;DHT22;4927;52.472;13.108;2023-03-01T04:42:52;-6.10;99.90
9776;DHT22;4927;52.472;13.108;2023-03-01T04:44:10;-6.10;99.90
9776;DHT22;4927;52.472;13.108;2023-03-01T04:45:28;-6.10;99.90
9776;DHT22;4927;52.472;13.108;2023-03-01T04:46:44;-6.10;99.90
9776;DHT22;4927;52.472;13.108;2023-03-01T04:48:02;-6.10;99.90
9776;DHT22;4927;52.472;13.108;2023-03-01T04:49:20;-6.10;99.90
9776;DHT22;4927;52.472;13.108;2023-03-01T04:50:38;-6.10;99.90
9776;DHT22;4927;52.472;13.108;2023-03-01T04:51:54;-6.20;99.90
9776;DHT22;4927;52.472;13.108;2023-03-01T04:53:13;-6.20;99.90
9776;DHT22;4927;52.472;13.108;2023-03-01T04:54:31;-6.20;99.90
9776;DHT22;4927;52.472;13.108;2023-03-01T04:55:49;-6.20;99.90
9776;DHT22;4927;52.472;13.108;2023-03-01T04:57:07;-6.30;99.90
9776;DHT22;4927;52.472;13.108;2023-03-01T04:58:26;-6.20;99.90
9776;DHT22;4927;52.472;13.108;2023-03-01T04:59:43;-6.30;99.90
9776;DHT22;4927;52.472;13.108;2023-03-01T05:01:01;-6.30;99.90
9776;DHT22;4927;52.472;13.108;2023-03-01T05:02:19;-6.30;99.90
9776;DHT22;4927;52.472;13.108;2023-03-01T05:03:35;-6.30;99.90
9776;DHT22;4927;52.472;13.108;2023-03-01T05:04:52;-6.30;99.90
9776;DHT22;4927;52.472;13.108;2023-03-01T05:06:10;-6.30;99.90
9776;DHT22;4927;52.472;13.108;2023-03-01T05:07:28;-6.30;99.90
9776;DHT22;4927;52.472;13.108;2023-03-01T05:08:46;-6.30;99.90
9776;DHT22;4927;52.472;13.108;2023-03-01T05:10:04;-6.30;99.90
9776;DHT22;4927;52.472;13.108;2023-03-01T05:11:22;-6.30;99.90
9776;DHT22;4927;52.472;13.108;2023-03-01T05:12:40;-6.30;99.90
9776;DHT22;4927;52.472;13.108;2023-03-01T05:13:58;-6.30;99.90
9776;DHT22;4927;52.472;13.108;2023-03-01T05:15:16;-6.30;99.90
9776;DHT22;4927;52.472;13.108;2023-03-01T05:16:35;-6.30;99.90
9776;DHT22;4927;52.472;13.108;2023-03-01T05:17:52;-6.30;99.90
9776;DHT22;4927;52.472;13.108;2023-03-01T05:19:10;-6.30;99.90
9776;DHT22;4927;52.472;13.108;2023-03-01T05:20:29;-6.30;99.90
9776;DHT22;4927;52.472;13.108;2023-03-01T05:21:45;-6.40;99.90
9776;DHT22;4927;52.472;13.108;2023-03-01T05:23:09;-6.30;99.90
9776;DHT22;4927;52.472;13.108;2023-03-01T05:24:28;-6.40;99.90
9776;DHT22;4927;52.472;13.108;2023-03-01T05:25:45;-6.40;99.90
9776;DHT22;4927;52.472;13.108;2023-03-01T05:27:03;-6.40;99.90
9776;DHT22;4927;52.472;13.108;2023-03-01T05:28:19;-6.50;99.90
9776;DHT22;4927;52.472;13.108;2023-03-01T05:29:37;-6.50;99.90
9776;DHT22;4927;52.472;13.108;2023-03-01T05:30:56;-6.50;99.90
9776;DHT22;4927;52.472;13.108;2023-03-01T05:32:13;-6.40;99.90
9776;DHT22;4927;52.472;13.108;2023-03-01T05:33:32;-6.40;99.90
9776;DHT22;4927;52.472;13.108;2023-03-01T05:34:50;-6.40;99.90
9776;DHT22;4927;52.472;13.108;2023-03-01T05:36:09;-6.40;99.90
9776;DHT22;4927;52.472;13.108;2023-03-01T05:37:27;-6.40;99.90
9776;DHT22;4927;52.472;13.108;2023-03-01T05:38:45;-6.40;99.90
9776;DHT22;4927;52.472;13.108;2023-03-01T05:40:04;-6.50;99.90
9776;DHT22;4927;52.472;13.108;2023-03-01T05:41:23;-6.40;99.90
9776;DHT22;4927;52.472;13.108;2023-03-01T05:42:39;-6.40;99.90
9776;DHT22;4927;52.472;13.108;2023-03-01T05:43:57;-6.40;99.90
9776;DHT22;4927;52.472;13.108;2023-03-01T05:45:15;-6.50;99.90
9776;DHT22;4927;52.472;13.108;2023-03-01T05:46:33;-6.40;99.90
9776;DHT22;4927;52.472;13.108;2023-03-01T05:47:51;-6.40;99.90
9776;DHT22;4927;52.472;13.108;2023-03-01T05:49:06;-6.40;99.90
9776;DHT22;4927;52.472;13.108;2023-03-01T05:50:25;-6.40;99.90
9776;DHT22;4927;52.472;13.108;2023-03-01T05:51:43;-6.50;99.90
9776;DHT22;4927;52.472;13.108;2023-03-01T05:53:01;-6.50;99.90
9776;DHT22;4927;52.472;13.108;2023-03-01T05:54:20;-6.40;99.90
9776;DHT22;4927;52.472;13.108;2023-03-01T05:55:37;-6.40;99.90
9776;DHT22;4927;52.472;13.108;2023-03-01T05:56:54;-6.50;99.90
9776;DHT22;4927;52.472;13.108;2023-03-01T05:58:14;-6.50;99.90
9776;DHT22;4927;52.472;13.108;2023-03-01T05:59:31;-6.50;99.90
9776;DHT22;4927;52.472;13.108;2023-03-01T06:00:49;-6.50;99.90
9776;DHT22;4927;52.472;13.108;2023-03-01T06:02:07;-6.50;99.90
9776;DHT22;4927;52.472;13.108;2023-03-01T06:03:25;-6.50;99.90
9776;DHT22;4927;52.472;13.108;2023-03-01T06:04:44;-6.50;99.90
9776;DHT22;4927;52.472;13.108;2023-03-01T06:06:02;-6.50;99.90
9776;DHT22;4927;52.472;13.108;2023-03-01T06:07:20;-6.50;99.90
9776;DHT22;4927;52.472;13.108;2023-03-01T06:08:38;-6.50;99.90
9776;DHT22;4927;52.472;13.108;2023-03-01T06:10:02;-6.50;99.90
9776;DHT22;4927;52.472;13.108;2023-03-01T06:11:20;-6.50;99.90
9776;DHT22;4927;52.472;13.108;2023-03-01T06:12:40;-6.50;99.90
9776;DHT22;4927;52.472;13.108;2023-03-01T06:13:53;-6.50;99.90
9776;DHT22;4927;52.472;13.108;2023-03-01T06:15:11;-6.50;99.90
9776;DHT22;4927;52.472;13.108;2023-03-01T06:16:28;-6.50;99.90
9776;DHT22;4927;52.472;13.108;2023-03-01T06:17:47;-6.50;99.90
9776;DHT22;4927;52.472;13.108;2023-03-01T06:19:05;-6.50;99.90
9776;DHT22;4927;52.472;13.108;2023-03-01T06:20:24;-6.50;99.90
9776;DHT22;4927;52.472;13.108;2023-03-01T06:21:41;-6.50;99.90
9776;DHT22;4927;52.472;13.108;2023-03-01T06:22:59;-6.40;99.90
9776;DHT22;4927;52.472;13.108;2023-03-01T06:24:17;-6.40;99.90
9776;DHT22;4927;52.472;13.108;2023-03-01T06:25:35;-6.40;99.90
9776;DHT22;4927;52.472;13.108;2023-03-01T06:26:53;-6.40;99.90
9776;DHT22;4927;52.472;13.108;2023-03-01T06:28:11;-6.40;99.90
9776;DHT22;4927;52.472;13.108;2023-03-01T06:29:27;-6.40;99.90
9776;DHT22;4927;52.472;13.108;2023-03-01T06:30:46;-6.30;99.90
9776;DHT22;4927;52.472;13.108;2023-03-01T06:32:04;-6.30;99.90
9776;DHT22;4927;52.472;13.108;2023-03-01T06:33:22;-6.30;99.90
9776;DHT22;4927;52.472;13.108;2023-03-01T06:34:40;-6.20;99.90
9776;DHT22;4927;52.472;13.108;2023-03-01T06:35:58;-6.20;99.90
9776;DHT22;4927;52.472;13.108;2023-03-01T06:37:15;-6.20;99.90
9776;DHT22;4927;52.472;13.108;2023-03-01T06:38:34;-6.10;99.90
9776;DHT22;4927;52.472;13.108;2023-03-01T06:39:52;-6.10;99.90
9776;DHT22;4927;52.472;13.108;2023-03-01T06:41:10;-6.10;99.90
9776;DHT22;4927;52.472;13.108;2023-03-01T06:42:28;-6.00;99.90
9776;DHT22;4927;52.472;13.108;2023-03-01T06:43:46;-6.00;99.90
9776;DHT22;4927;52.472;13.108;2023-03-01T06:45:05;-6.00;99.90
9776;DHT22;4927;52.472;13.108;2023-03-01T06:46:24;-6.00;99.90
9776;DHT22;4927;52.472;13.108;2023-03-01T06:47:40;-6.00;99.90
9776;DHT22;4927;52.472;13.108;2023-03-01T06:48:58;-5.90;99.90
9776;DHT22;4927;52.472;13.108;2023-03-01T06:50:16;-5.90;99.90
9776;DHT22;4927;52.472;13.108;2023-03-01T06:51:31;-5.80;99.90
9776;DHT22;4927;52.472;13.108;2023-03-01T06:52:52;-5.80;99.90
9776;DHT22;4927;52.472;13.108;2023-03-01T06:54:07;-5.80;99.90
9776;DHT22;4927;52.472;13.108;2023-03-01T06:56:57;-5.70;99.90
9776;DHT22;4927;52.472;13.108;2023-03-01T06:58:15;-5.70;99.90
9776;DHT22;4927;52.472;13.108;2023-03-01T06:59:32;-5.70;99.90
9776;DHT22;4927;52.472;13.108;2023-03-01T07:00:50;-5.60;99.90
9776;DHT22;4927;52.472;13.108;2023-03-01T07:02:10;-5.60;99.90
9776;DHT22;4927;52.472;13.108;2023-03-01T07:03:28;-5.50;99.90
9776;DHT22;4927;52.472;13.108;2023-03-01T07:04:50;-5.50;99.90
9776;DHT22;4927;52.472;13.108;2023-03-01T07:06:08;-5.50;99.90
9776;DHT22;4927;52.472;13.108;2023-03-01T07:07:26;-5.40;99.90
9776;DHT22;4927;52.472;13.108;2023-03-01T07:08:43;-5.40;99.90
9776;DHT22;4927;52.472;13.108;2023-03-01T07:10:00;-5.30;99.90
9776;DHT22;4927;52.472;13.108;2023-03-01T07:11:18;-5.30;99.90
9776;DHT22;4927;52.472;13.108;2023-03-01T07:12:37;-5.20;99.90
9776;DHT22;4927;52.472;13.108;2023-03-01T07:13:55;-5.10;99.90
9776;DHT22;4927;52.472;13.108;2023-03-01T07:15:14;-5.10;99.90
9776;DHT22;4927;52.472;13.108;2023-03-01T07:16:36;-5.00;99.90
9776;DHT22;4927;52.472;13.108;2023-03-01T07:17:54;-5.00;99.90
9776;DHT22;4927;52.472;13.108;2023-03-01T07:19:12;-4.90;99.90
9776;DHT22;4927;52.472;13.108;2023-03-01T07:20:30;-4.90;99.90
9776;DHT22;4927;52.472;13.108;2023-03-01T07:21:48;-4.80;99.90
9776;DHT22;4927;52.472;13.108;2023-03-01T07:23:06;-4.80;99.90
9776;DHT22;4927;52.472;13.108;2023-03-01T07:24:24;-4.80;99.90
9776;DHT22;4927;52.472;13.108;2023-03-01T07:25:53;-4.60;99.90
9776;DHT22;4927;52.472;13.108;2023-03-01T07:27:09;-4.70;99.90
9776;DHT22;4927;52.472;13.108;2023-03-01T07:28:27;-4.60;99.90
9776;DHT22;4927;52.472;13.108;2023-03-01T07:29:43;-4.50;99.90
9776;DHT22;4927;52.472;13.108;2023-03-01T07:31:02;-4.50;99.90
9776;DHT22;4927;52.472;13.108;2023-03-01T07:32:20;-4.40;99.90
9776;DHT22;4927;52.472;13.108;2023-03-01T07:33:37;-4.40;99.90
9776;DHT22;4927;52.472;13.108;2023-03-01T07:34:55;-4.30;99.90
9776;DHT22;4927;52.472;13.108;2023-03-01T07:36:13;-4.30;99.90
9776;DHT22;4927;52.472;13.108;2023-03-01T07:37:31;-4.30;99.90
9776;DHT22;4927;52.472;13.108;2023-03-01T07:38:50;-4.20;99.90
9776;DHT22;4927;52.472;13.108;2023-03-01T07:40:09;-4.20;99.90
9776;DHT22;4927;52.472;13.108;2023-03-01T07:41:32;-4.10;99.90
9776;DHT22;4927;52.472;13.108;2023-03-01T07:42:54;-4.10;99.90
9776;DHT22;4927;52.472;13.108;2023-03-01T07:44:07;-4.00;99.90
9776;DHT22;4927;52.472;13.108;2023-03-01T07:45:29;-4.00;99.90
9776;DHT22;4927;52.472;13.108;2023-03-01T07:46:47;-4.00;99.90
9776;DHT22;4927;52.472;13.108;2023-03-01T07:48:05;-3.40;99.90
9776;DHT22;4927;52.472;13.108;2023-03-01T07:49:27;-3.90;99.90
9776;DHT22;4927;52.472;13.108;2023-03-01T07:50:45;-3.90;99.90
9776;DHT22;4927;52.472;13.108;2023-03-01T07:52:03;-3.80;99.90
9776;DHT22;4927;52.472;13.108;2023-03-01T07:53:21;-3.80;99.90
9776;DHT22;4927;52.472;13.108;2023-03-01T07:54:42;-3.70;99.90
9776;DHT22;4927;52.472;13.108;2023-03-01T07:56:07;-3.60;99.90
9776;DHT22;4927;52.472;13.108;2023-03-01T07:57:24;-3.60;99.90
9776;DHT22;4927;52.472;13.108;2023-03-01T07:58:42;-3.60;99.90
9776;DHT22;4927;52.472;13.108;2023-03-01T08:00:00;-3.50;99.90
9776;DHT22;4927;52.472;13.108;2023-03-01T08:01:19;-3.50;99.90
9776;DHT22;4927;52.472;13.108;2023-03-01T08:02:36;-3.40;99.90
9776;DHT22;4927;52.472;13.108;2023-03-01T08:03:54;-3.40;99.90
9776;DHT22;4927;52.472;13.108;2023-03-01T08:05:11;-3.30;99.90
9776;DHT22;4927;52.472;13.108;2023-03-01T08:06:28;-3.30;99.90
9776;DHT22;4927;52.472;13.108;2023-03-01T08:07:47;-3.20;99.90
9776;DHT22;4927;52.472;13.108;2023-03-01T08:09:09;-3.10;99.90
9776;DHT22;4927;52.472;13.108;2023-03-01T08:10:27;-3.10;99.90
9776;DHT22;4927;52.472;13.108;2023-03-01T08:11:45;-3.10;99.90
9776;DHT22;4927;52.472;13.108;2023-03-01T08:13:07;-3.00;99.90
9776;DHT22;4927;52.472;13.108;2023-03-01T08:14:28;-2.90;99.90
9776;DHT22;4927;52.472;13.108;2023-03-01T08:15:50;-2.90;99.90
9776;DHT22;4927;52.472;13.108;2023-03-01T08:17:09;-2.80;99.90
9776;DHT22;4927;52.472;13.108;2023-03-01T08:18:27;-2.70;99.90
9776;DHT22;4927;52.472;13.108;2023-03-01T08:19:45;-2.70;99.90
9776;DHT22;4927;52.472;13.108;2023-03-01T08:21:07;-2.60;99.90
9776;DHT22;4927;52.472;13.108;2023-03-01T08:22:23;-2.50;99.90
9776;DHT22;4927;52.472;13.108;2023-03-01T08:23:41;-2.50;99.90
9776;DHT22;4927;52.472;13.108;2023-03-01T08:24:59;-2.40;99.90
9776;DHT22;4927;52.472;13.108;2023-03-01T08:26:19;-2.20;99.90